Las Vegas, Nevada
Current Conditions -  °F | °C
As of 7:56 AM on Thursday 18 Dec 2014 (Local Time) from KLAS Reporting Station
Broken Clouds Broken Clouds  
Wind Chill:   Ceiling: 1700
Heat Index:   Visibility: 10mi
Dew Point:   Wind: 8mph
Humidity: 77%   Direction: 190°S
Pressure: 30.13"   Gusts: NA
Location:  36.17°N, 115.13°W
Report Text: KLAS 181556Z 19007KT 10SM BKN017 BKN040 BKN060 09/05 A3013 RMK AO2 SLP202 T00890050 $
Loading
Personal Weather Stations






























Interactive Weather Map New forecast layout! Learn more

10-Day Weather Forecast

Advertisements
Track Severe Weather on mobile